createdAt,value
2022-09-26T00:00:02.134Z,17.71
2022-09-26T00:01:02.219Z,17.71
2022-09-26T00:02:02.184Z,17.78
2022-09-26T00:03:02.133Z,17.68
2022-09-26T00:04:02.136Z,17.59
2022-09-26T00:05:02.133Z,17.59
2022-09-26T00:06:02.138Z,17.55
2022-09-26T00:07:02.132Z,17.55
2022-09-26T00:08:02.137Z,17.43
2022-09-26T00:09:02.136Z,17.49
2022-09-26T00:10:02.138Z,17.63
2022-09-26T00:11:02.151Z,17.51
2022-09-26T00:12:02.132Z,17.58
2022-09-26T00:13:02.133Z,17.64
2022-09-26T00:14:02.135Z,17.72
2022-09-26T00:15:02.134Z,17.71
2022-09-26T00:16:02.137Z,17.55
2022-09-26T00:17:02.272Z,17.59
2022-09-26T00:18:02.137Z,17.71
2022-09-26T00:19:02.134Z,17.62
2022-09-26T00:20:02.133Z,17.51
2022-09-26T00:21:02.131Z,17.43
2022-09-26T00:22:02.137Z,17.44
2022-09-26T00:23:02.138Z,17.51
2022-09-26T00:24:02.141Z,17.54
2022-09-26T00:25:02.133Z,17.56
2022-09-26T00:26:02.140Z,17.56
2022-09-26T00:27:02.204Z,17.48
2022-09-26T00:28:02.137Z,17.56
2022-09-26T00:29:02.131Z,17.55
2022-09-26T00:30:02.133Z,17.58
2022-09-26T00:31:02.255Z,17.68
2022-09-26T00:32:02.133Z,17.63
2022-09-26T00:33:02.137Z,17.66
2022-09-26T00:34:02.134Z,17.63
2022-09-26T00:35:02.131Z,17.72
2022-09-26T00:36:02.151Z,17.62
2022-09-26T00:37:02.135Z,17.66
2022-09-26T00:38:02.140Z,17.59
2022-09-26T00:39:02.136Z,17.59
2022-09-26T00:40:02.135Z,17.49
2022-09-26T00:41:02.244Z,17.52
2022-09-26T00:42:02.133Z,17.43
2022-09-26T00:43:02.150Z,17.52
2022-09-26T00:44:02.132Z,17.41
2022-09-26T00:45:02.134Z,17.44
2022-09-26T00:46:02.227Z,17.37
2022-09-26T00:47:02.131Z,17.36
2022-09-26T00:48:02.133Z,17.51
2022-09-26T00:49:02.132Z,17.38
2022-09-26T00:50:02.147Z,17.48
2022-09-26T00:51:02.131Z,17.38
2022-09-26T00:52:02.135Z,17.46
2022-09-26T00:53:02.130Z,17.40
2022-09-26T00:54:02.130Z,17.31
2022-09-26T00:55:02.131Z,17.19
2022-09-26T00:56:02.133Z,17.07
2022-09-26T00:57:02.132Z,17.01
2022-09-26T00:58:02.133Z,17.08
2022-09-26T00:59:02.155Z,17.16
2022-09-26T01:00:02.146Z,17.15
2022-09-26T01:01:02.353Z,17.14
2022-09-26T01:02:02.392Z,17.14
2022-09-26T01:03:02.129Z,17.11
2022-09-26T01:04:02.129Z,17.14
2022-09-26T01:05:02.132Z,17.08
2022-09-26T01:06:02.139Z,17.12
2022-09-26T01:07:02.131Z,17.03
2022-09-26T01:08:02.136Z,16.89
2022-09-26T01:09:02.127Z,16.88
2022-09-26T01:10:02.134Z,17.03
2022-09-26T01:11:02.135Z,17.03
2022-09-26T01:12:02.130Z,16.98
2022-09-26T01:13:02.131Z,17.04
2022-09-26T01:14:02.135Z,17.04
2022-09-26T01:15:02.232Z,16.97
2022-09-26T01:16:02.140Z,16.89
2022-09-26T01:17:02.203Z,16.93
2022-09-26T01:18:02.128Z,16.94
2022-09-26T01:19:02.129Z,17.03
2022-09-26T01:20:02.133Z,17.04
2022-09-26T01:21:02.131Z,16.97
2022-09-26T01:22:02.131Z,17.01
2022-09-26T01:23:02.131Z,16.97
2022-09-26T01:24:02.129Z,17.03
2022-09-26T01:25:02.132Z,17.03
2022-09-26T01:26:02.129Z,16.96
2022-09-26T01:27:02.128Z,17.00
2022-09-26T01:28:02.126Z,16.89
2022-09-26T01:29:02.140Z,16.86
2022-09-26T01:30:02.146Z,16.89
2022-09-26T01:31:02.230Z,17.00
2022-09-26T01:32:02.128Z,17.00
2022-09-26T01:33:02.126Z,16.86
2022-09-26T01:34:02.132Z,16.96
2022-09-26T01:35:02.127Z,17.01
2022-09-26T01:36:02.133Z,17.03
2022-09-26T01:37:02.128Z,17.04
2022-09-26T01:38:02.129Z,17.07
2022-09-26T01:39:02.125Z,17.00
2022-09-26T01:40:02.130Z,16.97
2022-09-26T01:41:02.131Z,17.00
2022-09-26T01:42:02.125Z,16.97
2022-09-26T01:43:02.128Z,16.98
2022-09-26T01:44:02.126Z,16.98
2022-09-26T01:45:02.135Z,17.06
2022-09-26T01:46:02.284Z,17.01
2022-09-26T01:47:02.147Z,17.00
2022-09-26T01:48:02.129Z,16.96
2022-09-26T01:49:02.129Z,17.06
2022-09-26T01:50:02.131Z,17.00
2022-09-26T01:51:02.129Z,16.91
2022-09-26T01:52:02.127Z,16.88
2022-09-26T01:53:02.125Z,17.04
2022-09-26T01:54:02.125Z,17.01
2022-09-26T01:55:02.120Z,16.98
2022-09-26T01:56:02.124Z,16.89
2022-09-26T01:57:02.125Z,16.93
2022-09-26T01:58:02.128Z,16.86
2022-09-26T01:59:02.123Z,17.00
2022-09-26T02:00:02.133Z,16.85
2022-09-26T02:01:02.213Z,16.86
2022-09-26T02:02:02.185Z,16.78
2022-09-26T02:03:02.144Z,16.82
2022-09-26T02:04:02.124Z,16.81
2022-09-26T02:05:02.124Z,16.85
2022-09-26T02:06:02.126Z,16.78
2022-09-26T02:07:02.139Z,16.81
2022-09-26T02:08:02.122Z,16.83
2022-09-26T02:09:02.124Z,16.83
2022-09-26T02:10:02.128Z,16.86
2022-09-26T02:11:02.125Z,16.82
2022-09-26T02:12:02.121Z,16.88
2022-09-26T02:13:02.125Z,16.86
2022-09-26T02:14:02.126Z,16.91
2022-09-26T02:15:02.124Z,16.86
2022-09-26T02:16:02.287Z,16.85
2022-09-26T02:17:02.217Z,16.82
2022-09-26T02:18:02.125Z,16.88
2022-09-26T02:19:02.138Z,16.88
2022-09-26T02:20:02.121Z,16.89
2022-09-26T02:21:02.124Z,16.86
2022-09-26T02:22:02.134Z,16.83
2022-09-26T02:23:02.122Z,16.85
2022-09-26T02:24:02.122Z,16.89
2022-09-26T02:25:02.120Z,16.83
2022-09-26T02:26:02.120Z,16.89
2022-09-26T02:27:02.170Z,16.89
2022-09-26T02:28:02.118Z,16.98
2022-09-26T02:29:02.119Z,17.01
2022-09-26T02:30:02.128Z,16.97
2022-09-26T02:31:02.117Z,17.00
2022-09-26T02:32:02.171Z,16.88
2022-09-26T02:33:02.117Z,16.88
2022-09-26T02:34:02.121Z,16.82
2022-09-26T02:35:02.135Z,16.78
2022-09-26T02:36:02.117Z,16.85
2022-09-26T02:37:02.115Z,16.82
2022-09-26T02:38:02.126Z,16.81
2022-09-26T02:39:02.118Z,16.83
2022-09-26T02:40:02.120Z,16.89
2022-09-26T02:41:02.118Z,16.88
2022-09-26T02:42:02.118Z,16.89
2022-09-26T02:43:02.128Z,16.86
2022-09-26T02:44:02.119Z,16.86
2022-09-26T02:45:02.121Z,16.89
2022-09-26T02:46:02.278Z,16.91
2022-09-26T02:47:02.117Z,16.86
2022-09-26T02:48:02.115Z,16.86
2022-09-26T02:49:02.121Z,16.94
2022-09-26T02:50:02.115Z,16.86
2022-09-26T02:51:02.135Z,16.85
2022-09-26T02:52:02.116Z,16.76
2022-09-26T02:53:02.117Z,16.75
2022-09-26T02:54:02.115Z,16.85
2022-09-26T02:55:02.122Z,16.76
2022-09-26T02:56:02.115Z,16.75
2022-09-26T02:57:02.117Z,16.88
2022-09-26T02:58:02.115Z,16.89
2022-09-26T02:59:02.114Z,16.86
2022-09-26T03:00:02.115Z,16.86
2022-09-26T03:01:02.213Z,16.82
2022-09-26T03:02:02.120Z,16.79
2022-09-26T03:03:02.109Z,16.70
2022-09-26T03:04:02.118Z,16.70
2022-09-26T03:05:02.188Z,16.61
2022-09-26T03:06:02.114Z,16.61
2022-09-26T03:07:02.146Z,16.67
2022-09-26T03:08:02.110Z,16.66
2022-09-26T03:09:02.122Z,16.75
2022-09-26T03:10:02.119Z,16.64
2022-09-26T03:11:02.109Z,16.68
2022-09-26T03:12:02.119Z,16.64
2022-09-26T03:13:02.108Z,16.67
2022-09-26T03:14:02.118Z,16.75
2022-09-26T03:15:02.111Z,16.63
2022-09-26T03:16:02.164Z,16.60
2022-09-26T03:17:02.105Z,16.58
2022-09-26T03:18:02.108Z,16.60
2022-09-26T03:19:02.108Z,16.57
2022-09-26T03:20:02.105Z,16.64
2022-09-26T03:21:02.114Z,16.61
2022-09-26T03:22:02.119Z,16.50
2022-09-26T03:23:02.129Z,16.58
2022-09-26T03:24:02.115Z,16.49
2022-09-26T03:25:02.108Z,16.56
2022-09-26T03:26:02.122Z,16.60
2022-09-26T03:27:02.159Z,16.63
2022-09-26T03:28:02.115Z,16.64
2022-09-26T03:29:02.110Z,16.60
2022-09-26T03:30:02.111Z,16.64
2022-09-26T03:31:02.104Z,16.60
2022-09-26T03:32:02.262Z,16.60
2022-09-26T03:33:02.105Z,16.61
2022-09-26T03:34:02.139Z,16.63
2022-09-26T03:35:02.113Z,16.56
2022-09-26T03:36:02.106Z,16.58
2022-09-26T03:37:02.109Z,16.64
2022-09-26T03:38:02.108Z,16.64
2022-09-26T03:39:02.129Z,16.38
2022-09-26T03:40:02.113Z,16.48
2022-09-26T03:41:02.339Z,16.38
2022-09-26T03:42:02.104Z,16.34
2022-09-26T03:43:02.112Z,16.21
2022-09-26T03:44:02.102Z,16.31
2022-09-26T03:45:02.111Z,16.38
2022-09-26T03:46:02.207Z,16.34
2022-09-26T03:47:02.107Z,16.34
2022-09-26T03:48:02.125Z,16.27
2022-09-26T03:49:02.105Z,16.27
2022-09-26T03:50:02.113Z,16.24
2022-09-26T03:51:02.100Z,16.34
2022-09-26T03:52:02.105Z,16.27
2022-09-26T03:53:02.104Z,16.23
2022-09-26T03:54:02.103Z,16.23
2022-09-26T03:55:02.125Z,16.24
2022-09-26T03:56:02.103Z,16.20
2022-09-26T03:57:02.109Z,16.33
2022-09-26T03:58:02.106Z,16.11
2022-09-26T03:59:02.101Z,16.21
2022-09-26T04:00:02.141Z,16.24
2022-09-26T04:01:02.201Z,16.17
2022-09-26T04:02:02.229Z,16.17
2022-09-26T04:03:02.115Z,16.12
2022-09-26T04:04:02.115Z,16.09
2022-09-26T04:05:02.102Z,16.15
2022-09-26T04:06:02.098Z,16.14
2022-09-26T04:07:02.113Z,16.14
2022-09-26T04:08:02.102Z,16.25
2022-09-26T04:09:02.107Z,16.14
2022-09-26T04:10:02.112Z,16.24
2022-09-26T04:11:02.117Z,16.30
2022-09-26T04:12:02.110Z,16.20
2022-09-26T04:13:02.106Z,16.38
2022-09-26T04:14:02.106Z,16.43
2022-09-26T04:15:02.114Z,16.34
2022-09-26T04:16:02.203Z,16.33
2022-09-26T04:17:02.118Z,16.38
2022-09-26T04:18:02.119Z,16.34
2022-09-26T04:19:02.109Z,16.33
2022-09-26T04:20:02.114Z,16.39
2022-09-26T04:21:03.997Z,16.34
2022-09-26T04:22:02.092Z,16.33
2022-09-26T04:23:02.106Z,16.24
2022-09-26T04:24:02.116Z,16.30
2022-09-26T04:25:02.101Z,16.28
2022-09-26T04:26:02.092Z,16.28
2022-09-26T04:27:02.142Z,16.25
2022-09-26T04:28:02.093Z,16.24
2022-09-26T04:29:02.092Z,16.24
2022-09-26T04:30:02.095Z,16.24
2022-09-26T04:31:02.091Z,16.12
2022-09-26T04:32:02.173Z,16.23
2022-09-26T04:33:02.091Z,16.11
2022-09-26T04:34:02.087Z,16.07
2022-09-26T04:35:02.096Z,16.08
2022-09-26T04:36:02.094Z,16.08
2022-09-26T04:37:02.088Z,16.05
2022-09-26T04:38:02.092Z,16.09
2022-09-26T04:39:02.092Z,16.05
2022-09-26T04:40:02.087Z,16.08
2022-09-26T04:41:02.231Z,16.09
2022-09-26T04:42:02.093Z,16.12
2022-09-26T04:43:02.210Z,16.14
2022-09-26T04:44:02.086Z,16.09
2022-09-26T04:45:02.087Z,16.00
2022-09-26T04:46:02.134Z,16.07
2022-09-26T04:47:02.088Z,16.05
2022-09-26T04:48:02.086Z,16.12
2022-09-26T04:49:02.089Z,16.07
2022-09-26T04:50:02.086Z,16.09
2022-09-26T04:51:02.085Z,16.14
2022-09-26T04:52:02.083Z,16.12
2022-09-26T04:53:02.085Z,16.09
2022-09-26T04:54:02.088Z,16.11
2022-09-26T04:55:02.084Z,16.01
2022-09-26T04:56:02.085Z,16.02
2022-09-26T04:57:02.084Z,16.05
2022-09-26T04:58:02.085Z,16.04
2022-09-26T04:59:02.197Z,15.84
2022-09-26T05:00:02.085Z,16.04
2022-09-26T05:01:02.169Z,15.93
2022-09-26T05:02:02.153Z,15.97
2022-09-26T05:03:02.084Z,15.93
2022-09-26T05:04:02.080Z,15.92
2022-09-26T05:05:02.082Z,16.01
2022-09-26T05:06:02.080Z,15.92
2022-09-26T05:07:02.083Z,15.90
2022-09-26T05:08:02.086Z,15.84
2022-09-26T05:09:02.083Z,15.87
2022-09-26T05:10:02.079Z,15.97
2022-09-26T05:11:02.080Z,15.90
2022-09-26T05:12:02.084Z,15.87
2022-09-26T05:13:02.096Z,15.86
2022-09-26T05:14:02.080Z,15.86
2022-09-26T05:15:02.101Z,15.87
2022-09-26T05:16:02.123Z,15.97
2022-09-26T05:17:02.076Z,15.89
2022-09-26T05:18:02.072Z,15.92
2022-09-26T05:19:02.075Z,15.97
2022-09-26T05:20:02.076Z,15.97
2022-09-26T05:21:02.076Z,15.93
2022-09-26T05:22:02.076Z,16.00
2022-09-26T05:23:02.077Z,16.01
2022-09-26T05:24:02.073Z,15.97
2022-09-26T05:25:02.076Z,16.02
2022-09-26T05:26:02.078Z,15.94
2022-09-26T05:27:02.076Z,15.94
2022-09-26T05:28:02.135Z,15.96
2022-09-26T05:29:07.712Z,15.96
2022-09-26T05:30:02.079Z,15.97
2022-09-26T05:31:02.095Z,15.93
2022-09-26T05:32:02.149Z,15.97
2022-09-26T05:33:02.074Z,15.87
2022-09-26T05:34:02.071Z,15.92
2022-09-26T05:35:02.068Z,16.00
2022-09-26T05:36:02.084Z,16.01
2022-09-26T05:37:02.069Z,15.87
2022-09-26T05:38:02.075Z,15.87
2022-09-26T05:39:02.069Z,15.97
2022-09-26T05:40:02.069Z,16.00
2022-09-26T05:41:02.169Z,15.96
2022-09-26T05:42:02.068Z,15.90
2022-09-26T05:43:02.069Z,15.97
2022-09-26T05:44:02.067Z,15.86
2022-09-26T05:45:02.073Z,15.92
2022-09-26T05:46:02.075Z,15.86
2022-09-26T05:47:02.283Z,15.94
2022-09-26T05:48:02.068Z,15.76
2022-09-26T05:49:02.065Z,15.87
2022-09-26T05:50:02.121Z,15.74
2022-09-26T05:51:02.066Z,15.71
2022-09-26T05:52:02.065Z,15.84
2022-09-26T05:53:02.066Z,15.75
2022-09-26T05:54:02.066Z,15.83
2022-09-26T05:55:02.066Z,15.87
2022-09-26T05:56:02.066Z,15.87
2022-09-26T05:57:02.084Z,15.87
2022-09-26T05:58:02.062Z,15.92
2022-09-26T05:59:02.063Z,15.87
2022-09-26T06:00:02.062Z,15.86
2022-09-26T06:01:02.155Z,15.86
2022-09-26T06:02:02.164Z,15.92
2022-09-26T06:03:02.086Z,15.90
2022-09-26T06:04:02.060Z,15.89
2022-09-26T06:05:02.059Z,15.87
2022-09-26T06:06:02.065Z,15.84
2022-09-26T06:07:02.060Z,15.86
2022-09-26T06:08:02.057Z,15.96
2022-09-26T06:09:02.062Z,15.94
2022-09-26T06:10:02.073Z,15.87
2022-09-26T06:11:02.059Z,15.92
2022-09-26T06:12:02.054Z,15.97
2022-09-26T06:13:02.058Z,15.97
2022-09-26T06:14:02.058Z,15.96
2022-09-26T06:15:02.059Z,15.93
2022-09-26T06:16:02.111Z,15.94
2022-09-26T06:17:02.058Z,15.97
2022-09-26T06:18:02.062Z,16.04
2022-09-26T06:19:02.160Z,15.94
2022-09-26T06:20:02.064Z,15.86
2022-09-26T06:21:02.053Z,16.02
2022-09-26T06:22:02.055Z,16.04
2022-09-26T06:23:02.060Z,16.09
2022-09-26T06:24:02.061Z,16.15
2022-09-26T06:25:02.052Z,16.09
2022-09-26T06:26:02.055Z,16.08
2022-09-26T06:27:02.060Z,16.20
2022-09-26T06:28:02.049Z,16.24
2022-09-26T06:29:02.050Z,16.30
2022-09-26T06:30:02.051Z,16.39
2022-09-26T06:31:02.051Z,16.43
2022-09-26T06:32:02.113Z,16.49
2022-09-26T06:33:02.060Z,16.42
2022-09-26T06:34:02.054Z,16.53
2022-09-26T06:35:02.068Z,16.48
2022-09-26T06:36:02.053Z,16.45
2022-09-26T06:37:02.052Z,16.61
2022-09-26T06:38:02.051Z,16.49
2022-09-26T06:39:02.051Z,16.60
2022-09-26T06:40:02.044Z,16.64
2022-09-26T06:41:02.106Z,16.70
2022-09-26T06:42:02.047Z,16.82
2022-09-26T06:43:02.048Z,16.76
2022-09-26T06:44:02.051Z,16.76
2022-09-26T06:45:02.049Z,16.83
2022-09-26T06:46:02.070Z,16.97
2022-09-26T06:47:02.123Z,16.98
2022-09-26T06:48:02.052Z,17.03
2022-09-26T06:49:02.045Z,17.00
2022-09-26T06:50:02.045Z,17.07
2022-09-26T06:51:02.147Z,17.16
2022-09-26T06:52:02.049Z,16.96
2022-09-26T06:53:11.980Z,17.14
2022-09-26T06:54:02.041Z,17.21
2022-09-26T06:55:02.048Z,17.33
2022-09-26T06:56:02.045Z,17.34
2022-09-26T06:57:02.056Z,17.48
2022-09-26T06:58:02.055Z,17.43
2022-09-26T06:59:02.052Z,17.51
2022-09-26T07:00:02.049Z,17.52
2022-09-26T07:01:02.241Z,17.43
2022-09-26T07:02:02.219Z,17.48
2022-09-26T07:03:02.042Z,17.55
2022-09-26T07:04:02.068Z,17.55
2022-09-26T07:05:02.045Z,17.59
2022-09-26T07:06:02.037Z,17.72
2022-09-26T07:07:02.065Z,17.79
2022-09-26T07:08:02.039Z,18.11
2022-09-26T07:09:12.752Z,18.05
2022-09-26T07:10:02.035Z,18.33
2022-09-26T07:11:27.902Z,18.55
2022-09-26T07:12:16.416Z,18.99
2022-09-26T07:13:02.041Z,19.26
2022-09-26T07:14:02.336Z,19.62
2022-09-26T07:15:02.041Z,19.92
2022-09-26T07:16:02.051Z,20.58
2022-09-26T07:17:02.044Z,21.32
2022-09-26T07:18:02.040Z,22.00
2022-09-26T07:19:02.037Z,22.60
2022-09-26T07:20:02.040Z,22.88
2022-09-26T07:21:02.040Z,23.23
2022-09-26T07:22:02.040Z,23.47
2022-09-26T07:23:02.173Z,23.78
2022-09-26T07:24:02.040Z,24.02
2022-09-26T07:25:02.041Z,24.10
2022-09-26T07:26:02.038Z,24.09
2022-09-26T07:27:02.037Z,24.09
2022-09-26T07:28:02.043Z,23.75
2022-09-26T07:29:02.037Z,23.39
2022-09-26T07:30:02.035Z,23.48
2022-09-26T07:31:02.151Z,23.43
2022-09-26T07:32:02.142Z,22.88
2022-09-26T07:33:02.048Z,22.61
2022-09-26T07:34:02.042Z,22.52
2022-09-26T07:35:02.038Z,22.61
2022-09-26T07:36:05.449Z,22.68
2022-09-26T07:37:02.041Z,22.54
2022-09-26T07:38:02.044Z,22.61
2022-09-26T07:39:02.057Z,22.77
2022-09-26T07:40:02.194Z,22.77
2022-09-26T07:41:02.130Z,22.88
2022-09-26T07:42:02.040Z,22.91
2022-09-26T07:43:19.105Z,23.09
2022-09-26T07:44:53.344Z,23.19
2022-09-26T07:46:02.050Z,23.48
2022-09-26T07:47:02.116Z,23.27
2022-09-26T07:48:02.042Z,23.19
2022-09-26T07:49:02.041Z,23.20
2022-09-26T07:50:02.043Z,22.52
2022-09-26T07:51:06.944Z,22.18
2022-09-26T07:52:02.042Z,21.94
2022-09-26T07:53:02.043Z,21.91
2022-09-26T07:54:02.045Z,22.03
2022-09-26T07:55:02.061Z,22.22
2022-09-26T07:56:02.050Z,22.70
2022-09-26T07:57:02.045Z,23.20
2022-09-26T07:58:02.048Z,23.35
2022-09-26T07:59:02.041Z,23.55
2022-09-26T08:00:02.051Z,23.85
2022-09-26T08:01:02.049Z,23.60
2022-09-26T08:02:02.285Z,23.53
2022-09-26T08:03:02.112Z,23.05
2022-09-26T08:04:02.050Z,22.33
2022-09-26T08:05:02.049Z,21.64
2022-09-26T08:06:02.050Z,21.43
2022-09-26T08:07:02.057Z,21.35
2022-09-26T08:08:02.053Z,21.59
2022-09-26T08:09:02.059Z,21.72
2022-09-26T08:10:02.056Z,21.17
2022-09-26T08:11:04.201Z,20.76
2022-09-26T08:12:02.057Z,21.12
2022-09-26T08:13:02.058Z,20.91
2022-09-26T08:14:02.052Z,20.88
2022-09-26T08:15:02.055Z,21.17
2022-09-26T08:16:02.137Z,21.25
2022-09-26T08:17:02.069Z,21.46
2022-09-26T08:18:02.060Z,21.28
2022-09-26T08:19:02.059Z,21.40
2022-09-26T08:20:02.068Z,21.82
2022-09-26T08:21:02.059Z,21.99
2022-09-26T08:22:02.059Z,22.02
2022-09-26T08:23:02.062Z,21.98
2022-09-26T08:24:02.065Z,21.58
2022-09-26T08:25:02.066Z,22.10
2022-09-26T08:26:02.068Z,22.47
2022-09-26T08:27:02.094Z,22.10
2022-09-26T08:28:02.070Z,22.55
2022-09-26T08:29:02.093Z,22.83
2022-09-26T08:30:02.099Z,23.36
2022-09-26T08:31:02.158Z,23.69
2022-09-26T08:32:02.074Z,23.98
2022-09-26T08:33:02.071Z,24.09
2022-09-26T08:34:02.075Z,24.35
2022-09-26T08:35:02.092Z,24.24
2022-09-26T08:36:02.076Z,23.95
2022-09-26T08:37:02.082Z,23.78
2022-09-26T08:38:02.078Z,23.28
2022-09-26T08:39:02.079Z,23.01
2022-09-26T08:40:02.082Z,23.38
2022-09-26T08:41:02.178Z,23.75
2022-09-26T08:42:02.087Z,23.98
2022-09-26T08:43:02.215Z,24.13
2022-09-26T08:44:02.086Z,24.10
2022-09-26T08:45:02.088Z,24.13
2022-09-26T08:46:02.155Z,24.13
2022-09-26T08:47:02.245Z,23.85
2022-09-26T08:48:02.091Z,23.83
2022-09-26T08:49:02.095Z,24.31
2022-09-26T08:50:02.154Z,24.39
2022-09-26T08:51:02.103Z,24.71
2022-09-26T08:52:02.102Z,24.68
2022-09-26T08:53:02.104Z,24.35
2022-09-26T08:54:02.111Z,24.45
2022-09-26T08:55:02.120Z,24.69
2022-09-26T08:56:02.118Z,24.99
2022-09-26T08:57:02.120Z,25.21
2022-09-26T08:58:02.127Z,25.23
2022-09-26T08:59:02.145Z,25.21
2022-09-26T09:00:02.131Z,25.20
2022-09-26T09:01:02.149Z,25.24
2022-09-26T09:02:02.208Z,25.28
2022-09-26T09:03:02.329Z,25.06
2022-09-26T09:04:02.152Z,24.67
2022-09-26T09:05:02.155Z,24.68
2022-09-26T09:06:02.159Z,24.50
2022-09-26T09:07:02.160Z,24.06
2022-09-26T09:08:02.167Z,24.27
2022-09-26T09:09:02.174Z,24.95
2022-09-26T09:10:02.174Z,24.83
2022-09-26T09:11:02.179Z,24.42
2022-09-26T09:12:02.183Z,24.03
2022-09-26T09:13:02.197Z,23.55
2022-09-26T09:14:02.198Z,23.10
2022-09-26T09:15:23.964Z,23.35
2022-09-26T09:16:02.279Z,23.13
2022-09-26T09:17:02.209Z,23.54
2022-09-26T09:18:02.218Z,24.50
2022-09-26T09:19:02.222Z,25.55
2022-09-26T09:20:02.231Z,26.58
2022-09-26T09:21:02.227Z,27.51
2022-09-26T09:22:02.249Z,28.55
2022-09-26T09:23:02.247Z,29.08
2022-09-26T09:24:02.277Z,28.27
2022-09-26T09:25:02.255Z,27.84
2022-09-26T09:28:08.072Z,26.45
2022-09-26T09:29:02.279Z,25.64
2022-09-26T09:30:03.241Z,24.95
2022-09-26T09:31:02.445Z,24.40
2022-09-26T09:32:02.301Z,24.39
2022-09-26T09:33:02.301Z,23.97
2022-09-26T09:34:02.314Z,23.58
2022-09-26T09:35:02.329Z,23.13
2022-09-26T09:36:02.343Z,22.55
2022-09-26T09:37:02.330Z,22.24
2022-09-26T09:38:02.335Z,22.07
2022-09-26T09:39:02.341Z,22.94
2022-09-26T09:40:02.345Z,24.27
2022-09-26T09:41:02.498Z,24.15
2022-09-26T09:42:02.355Z,25.18
2022-09-26T09:43:02.355Z,26.33
2022-09-26T09:44:02.370Z,26.25
2022-09-26T09:45:02.377Z,25.95
2022-09-26T09:46:02.475Z,25.33
2022-09-26T09:47:02.528Z,24.93
2022-09-26T09:48:02.391Z,24.46
2022-09-26T09:49:02.400Z,25.14
2022-09-26T09:50:02.406Z,25.57
2022-09-26T09:51:02.412Z,25.43
2022-09-26T09:52:02.413Z,24.47
2022-09-26T09:53:02.420Z,24.50
2022-09-26T09:54:02.432Z,24.45
2022-09-26T09:55:02.432Z,24.12
2022-09-26T09:56:02.444Z,23.63
2022-09-26T09:57:02.449Z,23.98
2022-09-26T09:58:02.453Z,24.15
2022-09-26T09:59:02.461Z,23.78
2022-09-26T10:00:02.595Z,23.60
2022-09-26T10:01:02.467Z,23.33
2022-09-26T10:02:02.477Z,22.83
2022-09-26T10:03:02.624Z,22.61
2022-09-26T10:04:02.490Z,22.39
2022-09-26T10:05:02.501Z,22.20
2022-09-26T10:06:02.496Z,22.00
2022-09-26T10:07:02.503Z,21.79
2022-09-26T10:08:02.508Z,22.15
2022-09-26T10:09:35.975Z,21.91
2022-09-26T10:10:02.518Z,21.68
2022-09-26T10:11:02.520Z,21.72
2022-09-26T10:12:02.529Z,21.62
2022-09-26T10:13:02.531Z,22.76
2022-09-26T10:14:02.543Z,22.43
2022-09-26T10:15:02.537Z,22.33
2022-09-26T10:16:02.603Z,22.25
2022-09-26T10:17:02.544Z,22.33
2022-09-26T10:18:23.438Z,23.54
2022-09-26T10:19:03.822Z,24.95
2022-09-26T10:20:02.559Z,25.83
2022-09-26T10:21:02.560Z,25.85
2022-09-26T10:22:02.573Z,25.50
2022-09-26T10:23:02.568Z,24.80
2022-09-26T10:24:02.572Z,25.08
2022-09-26T10:25:02.576Z,25.97
2022-09-26T10:26:02.583Z,26.55
2022-09-26T10:27:02.582Z,26.43
2022-09-26T10:28:02.591Z,27.17
2022-09-26T10:29:02.591Z,27.63
2022-09-26T10:30:02.603Z,27.81
2022-09-26T10:31:02.670Z,27.78
2022-09-26T10:32:02.610Z,28.33
2022-09-26T10:33:02.618Z,28.67
2022-09-26T10:34:02.616Z,29.12
2022-09-26T10:35:02.645Z,29.51
2022-09-26T10:36:02.641Z,30.11
2022-09-26T10:37:02.628Z,30.19
2022-09-26T10:38:02.635Z,30.35
2022-09-26T10:39:02.640Z,30.51
2022-09-26T10:40:02.649Z,30.94
2022-09-26T10:41:02.687Z,31.04
2022-09-26T10:42:02.660Z,30.54
2022-09-26T10:43:02.663Z,30.39
2022-09-26T10:44:02.668Z,30.08
2022-09-26T10:45:02.672Z,29.63
2022-09-26T10:46:02.783Z,29.34
2022-09-26T10:47:02.697Z,29.82
2022-09-26T10:48:02.699Z,30.38
2022-09-26T10:49:02.701Z,30.76
2022-09-26T10:50:02.710Z,30.17
2022-09-26T10:51:02.745Z,29.53
2022-09-26T10:52:02.717Z,29.83
2022-09-26T10:53:02.730Z,30.01
2022-09-26T10:54:02.733Z,28.67
2022-09-26T10:55:02.739Z,27.43
2022-09-26T10:56:02.747Z,26.76
2022-09-26T10:57:02.750Z,26.33
2022-09-26T10:58:02.763Z,26.05
2022-09-26T10:59:02.765Z,25.55
2022-09-26T11:00:02.771Z,25.05
2022-09-26T11:01:02.783Z,24.52
2022-09-26T11:02:02.858Z,24.31
2022-09-26T11:03:02.789Z,24.02
2022-09-26T11:04:02.909Z,23.73
2022-09-26T11:05:02.803Z,23.75
2022-09-26T11:06:02.814Z,23.68
2022-09-26T11:07:02.836Z,23.50
2022-09-26T11:08:02.823Z,23.53
2022-09-26T11:09:02.819Z,23.39
2022-09-26T11:10:02.832Z,23.36
2022-09-26T11:11:02.857Z,23.31
2022-09-26T11:12:02.838Z,24.27
2022-09-26T11:13:02.846Z,24.22
2022-09-26T11:14:02.849Z,24.90
2022-09-26T11:15:02.858Z,24.81
2022-09-26T11:16:02.939Z,24.65
2022-09-26T11:17:02.866Z,24.80
2022-09-26T11:18:02.866Z,24.42
2022-09-26T11:19:02.876Z,23.84
2022-09-26T11:20:02.885Z,23.85
2022-09-26T11:21:02.876Z,23.42
2022-09-26T11:22:07.389Z,23.25
2022-09-26T11:23:02.917Z,23.27
2022-09-26T11:24:02.906Z,23.22
2022-09-26T11:26:46.626Z,22.47
2022-09-26T11:28:19.844Z,22.40
2022-09-26T11:28:46.636Z,22.25
2022-09-26T11:30:19.846Z,22.31
2022-09-26T11:32:30.370Z,22.22
2022-09-26T11:34:03.581Z,22.18
2022-09-26T11:34:30.374Z,22.33
2022-09-26T11:35:49.583Z,22.31
2022-09-26T11:36:30.383Z,22.18
2022-09-26T11:37:30.383Z,22.03
2022-09-26T11:38:30.417Z,21.96
2022-09-26T11:39:30.391Z,21.98
2022-09-26T11:40:30.476Z,21.94
2022-09-26T11:41:30.397Z,21.94
2022-09-26T11:42:30.397Z,21.91
2022-09-26T11:43:30.401Z,21.80
2022-09-26T11:44:30.406Z,21.75
2022-09-26T11:45:33.667Z,21.34
2022-09-26T11:46:30.457Z,21.09
2022-09-26T11:47:30.411Z,21.14
2022-09-26T11:48:30.416Z,21.17
2022-09-26T11:49:30.420Z,21.19
2022-09-26T11:50:30.420Z,21.16
2022-09-26T11:51:30.419Z,21.22
2022-09-26T11:52:30.439Z,20.97
2022-09-26T11:53:30.422Z,20.87
2022-09-26T11:54:30.449Z,20.87
2022-09-26T11:55:30.433Z,20.76
2022-09-26T11:56:30.445Z,20.88
2022-09-26T11:57:30.436Z,20.80
2022-09-26T11:58:30.437Z,20.85
2022-09-26T11:59:30.436Z,20.94
2022-09-26T12:00:30.440Z,20.88
2022-09-26T12:01:30.439Z,20.94
2022-09-26T12:02:30.598Z,20.69
2022-09-26T12:03:30.653Z,20.76
2022-09-26T12:04:30.445Z,20.58
2022-09-26T12:05:30.449Z,20.59
2022-09-26T12:06:30.448Z,20.48
2022-09-26T12:07:30.450Z,20.48
2022-09-26T12:08:30.456Z,20.51
2022-09-26T12:09:30.454Z,20.55
2022-09-26T12:10:30.484Z,20.67
2022-09-26T12:11:30.456Z,20.76
2022-09-26T12:12:30.462Z,20.94
2022-09-26T12:13:30.458Z,21.22
2022-09-26T12:14:30.459Z,21.16
2022-09-26T12:15:30.466Z,21.52
2022-09-26T12:16:30.642Z,21.65
2022-09-26T12:17:30.469Z,21.82
2022-09-26T12:18:30.465Z,22.02
2022-09-26T12:19:30.465Z,22.03
2022-09-26T12:20:30.468Z,22.02
2022-09-26T12:21:30.466Z,21.94
2022-09-26T12:22:30.475Z,21.80
2022-09-26T12:23:30.473Z,21.79
2022-09-26T12:24:30.476Z,21.75
2022-09-26T12:25:30.478Z,21.82
2022-09-26T12:26:30.496Z,21.64
2022-09-26T12:27:30.479Z,21.43
2022-09-26T12:28:30.479Z,21.37
2022-09-26T12:29:30.478Z,21.28
2022-09-26T12:30:30.491Z,21.07
2022-09-26T12:31:30.570Z,21.13
2022-09-26T12:32:30.488Z,21.09
2022-09-26T12:33:30.490Z,20.97
2022-09-26T12:34:30.487Z,20.85
2022-09-26T12:35:30.484Z,20.88
2022-09-26T12:36:30.494Z,20.89
2022-09-26T12:37:30.500Z,20.94
2022-09-26T12:38:30.490Z,20.95
2022-09-26T12:39:30.488Z,20.95
2022-09-26T12:40:30.568Z,21.09
2022-09-26T12:41:30.496Z,21.17
2022-09-26T12:42:30.518Z,21.25
2022-09-26T12:43:30.503Z,21.29
2022-09-26T12:44:30.499Z,21.34
2022-09-26T12:45:30.494Z,21.47
2022-09-26T12:46:30.572Z,21.67
2022-09-26T12:47:30.510Z,21.53
2022-09-26T12:48:30.508Z,21.35
2022-09-26T12:49:30.513Z,21.49
2022-09-26T12:50:30.503Z,21.53
2022-09-26T12:51:30.509Z,21.53
2022-09-26T12:52:30.528Z,21.43
2022-09-26T12:53:30.509Z,21.47
2022-09-26T12:54:30.509Z,21.47
2022-09-26T12:55:30.508Z,21.52
2022-09-26T12:56:30.511Z,21.64
2022-09-26T12:57:30.515Z,21.62
2022-09-26T12:58:30.535Z,21.61